Flight Track Log - Related Links

Times and Time Zones

All times are in EDT time to prevent confusion due to time zone crossing. See the N137TK flight status page for this flight to view local times or setup timezone preferences in your user account.

Time Position Orientation Groundspeed Altitude Reporting Facility
EDT Latitude Longitude Course Direction KTS MPH feet Rate Location/Type
Sun 09:10:17 AM 26.0975 -81.8511 179° South 164 189 5,000  Level Miami Center
Sun 09:11:17 AM 26.0472 -81.8536 183° South 164 189 6,800 1,850 Climbing Miami Center
Sun 09:12:17 AM 26.0014 -81.8517 178° South 174 200 8,700 1,100 Climbing Miami Center
Sun 09:13:17 AM 25.9472 -81.8469 176° South 181 208 9,000 150 Climbing Miami Center
Sun 09:14:00 AM 25.8344 -81.7724 179° South  Level Estimated
Sun 09:14:17 AM 25.8806 -81.8442 178° South 217 250 9,000  Level Miami Center
Sun 09:15:00 AM 25.7814 -81.7719 179° South  Level Estimated
Sun 09:15:17 AM 25.8119 -81.8392 176° South 237 273 9,000  Level Miami Center
Sun 09:16:17 AM 25.7453 -81.8342 176° South 243 280 9,000  Level Miami Center
Sun 09:17:17 AM 25.6744 -81.8289 176° South 250 288 9,000 -50 Level Miami Center
Sun 09:18:17 AM 25.6036 -81.8258 178° South 250 288 8,900 -50 Descending Miami Center
Sun 09:19:17 AM 25.5369 -81.8208 176° South 250 288 8,900 -350 Level Miami Center
Sun 09:20:17 AM 25.4639 -81.8203 180° South 255 293 8,200 -500 Descending Miami Center
Sun 09:21:17 AM 25.3931 -81.8150 176° South 260 299 7,900 -150 Descending Miami Center
Sun 09:22:17 AM 25.3200 -81.8097 176° South 260 299 7,900  Level Miami Center
Sun 09:23:17 AM 25.2536 -81.8025 174° South 255 293 7,900  Level Miami Center
Sun 09:24:17 AM 25.1847 -81.7997 178° South 255 293 7,900 50 Level Miami Center
Sun 09:25:17 AM 25.1139 -81.7944 176° South 255 293 8,000 -150 Climbing Miami Center
Sun 09:26:17 AM 25.0450 -81.7917 178° South 255 293 7,600 -700 Descending Miami Center
Sun 09:27:17 AM 24.9700 -81.7864 176° South 260 299 6,600 -1,000 Descending Miami Center
Sun 09:28:17 AM 24.8950 -81.7811 176° South 266 306 5,600 -1,050 Descending Miami Center
Sun 09:29:17 AM 24.8222 -81.7758 176° South 271 312 4,500 -1,050 Descending Miami Center
Sun 09:30:17 AM 24.7489 -81.7822 185° South 271 312 3,500 -1,000 Descending Miami Center
Sun 09:31:17 AM 24.6794 -81.7931 188° South 271 312 2,500 -1,000 Descending Miami Center
Sun 09:32:17 AM 24.6208 -81.8044 190° South 248 285 1,500 -1,000 Descending Miami Center
Sun 09:34:00 AM 24.5561 -81.7596 190° South  Level Estimated
Sun 09:41:00 AM 24.5561 -81.7596 190° South  Level Estimated
Sun 09:42:00 AM 24.5561 -81.7596 190° South  Level Estimated
Sun 09:43:00 AM 24.5561 -81.7596 190° South  Level Estimated

Login

Don't have an account? Register now (free) for customized features, flight alerts, and more!